sensor_id;sensor_type;location;lat;lon;timestamp;temperature;humidity
7646;DHT22;3864;48.180;14.178;2022-09-06T00:00:13;13.10;99.90
7646;DHT22;3864;48.180;14.178;2022-09-06T00:02:42;13.10;99.90
7646;DHT22;3864;48.180;14.178;2022-09-06T00:05:11;13.00;99.90
7646;DHT22;3864;48.180;14.178;2022-09-06T00:07:38;13.10;99.90
7646;DHT22;3864;48.180;14.178;2022-09-06T00:10:07;13.10;99.90
7646;DHT22;3864;48.180;14.178;2022-09-06T00:12:36;13.10;99.90
7646;DHT22;3864;48.180;14.178;2022-09-06T00:15:05;13.00;99.90
7646;DHT22;3864;48.180;14.178;2022-09-06T00:17:33;12.90;99.90
7646;DHT22;3864;48.180;14.178;2022-09-06T00:20:01;12.80;99.90
7646;DHT22;3864;48.180;14.178;2022-09-06T00:22:29;12.90;99.90
7646;DHT22;3864;48.180;14.178;2022-09-06T00:24:57;12.80;99.90
7646;DHT22;3864;48.180;14.178;2022-09-06T00:27:24;12.80;99.90
7646;DHT22;3864;48.180;14.178;2022-09-06T00:29:54;12.70;99.90
7646;DHT22;3864;48.180;14.178;2022-09-06T00:32:22;12.70;99.90
7646;DHT22;3864;48.180;14.178;2022-09-06T00:34:50;12.70;99.90
7646;DHT22;3864;48.180;14.178;2022-09-06T00:37:18;12.70;99.90
7646;DHT22;3864;48.180;14.178;2022-09-06T00:39:45;12.80;99.90
7646;DHT22;3864;48.180;14.178;2022-09-06T00:42:13;12.90;99.90
7646;DHT22;3864;48.180;14.178;2022-09-06T00:44:40;12.90;99.90
7646;DHT22;3864;48.180;14.178;2022-09-06T00:47:10;12.90;99.90
7646;DHT22;3864;48.180;14.178;2022-09-06T00:49:39;12.90;99.90
7646;DHT22;3864;48.180;14.178;2022-09-06T00:52:10;12.90;99.90
7646;DHT22;3864;48.180;14.178;2022-09-06T00:54:39;12.80;99.90
7646;DHT22;3864;48.180;14.178;2022-09-06T00:57:07;12.80;99.90
7646;DHT22;3864;48.180;14.178;2022-09-06T00:59:36;12.80;99.90
7646;DHT22;3864;48.180;14.178;2022-09-06T01:02:05;12.80;99.90
7646;DHT22;3864;48.180;14.178;2022-09-06T01:04:36;12.90;99.90
7646;DHT22;3864;48.180;14.178;2022-09-06T01:07:11;13.00;99.90
7646;DHT22;3864;48.180;14.178;2022-09-06T01:09:55;13.10;99.90
7646;DHT22;3864;48.180;14.178;2022-09-06T01:12:36;13.10;99.90
7646;DHT22;3864;48.180;14.178;2022-09-06T01:15:14;13.10;99.90
7646;DHT22;3864;48.180;14.178;2022-09-06T01:17:53;13.00;99.90
7646;DHT22;3864;48.180;14.178;2022-09-06T01:20:41;12.80;99.90
7646;DHT22;3864;48.180;14.178;2022-09-06T01:29:24;12.70;99.90
7646;DHT22;3864;48.180;14.178;2022-09-06T01:31:58;13.00;99.90
7646;DHT22;3864;48.180;14.178;2022-09-06T01:34:32;13.20;99.90
7646;DHT22;3864;48.180;14.178;2022-09-06T01:37:04;13.30;99.90
7646;DHT22;3864;48.180;14.178;2022-09-06T01:39:34;13.30;99.90
7646;DHT22;3864;48.180;14.178;2022-09-06T01:42:05;13.10;99.90
7646;DHT22;3864;48.180;14.178;2022-09-06T01:44:35;13.00;99.90
7646;DHT22;3864;48.180;14.178;2022-09-06T01:47:12;12.90;99.90
7646;DHT22;3864;48.180;14.178;2022-09-06T01:49:49;12.80;99.90
7646;DHT22;3864;48.180;14.178;2022-09-06T01:52:26;12.80;99.90
7646;DHT22;3864;48.180;14.178;2022-09-06T01:55:07;12.70;99.90
7646;DHT22;3864;48.180;14.178;2022-09-06T01:57:48;12.60;99.90
7646;DHT22;3864;48.180;14.178;2022-09-06T02:00:20;12.60;99.90
7646;DHT22;3864;48.180;14.178;2022-09-06T02:02:54;12.50;99.90
7646;DHT22;3864;48.180;14.178;2022-09-06T02:05:31;12.50;99.90
7646;DHT22;3864;48.180;14.178;2022-09-06T02:08:03;12.40;99.90
7646;DHT22;3864;48.180;14.178;2022-09-06T02:10:37;12.40;99.90
7646;DHT22;3864;48.180;14.178;2022-09-06T02:13:07;12.40;99.90
7646;DHT22;3864;48.180;14.178;2022-09-06T02:15:42;12.40;99.90
7646;DHT22;3864;48.180;14.178;2022-09-06T02:18:13;12.40;99.90
7646;DHT22;3864;48.180;14.178;2022-09-06T02:20:45;12.40;99.90
7646;DHT22;3864;48.180;14.178;2022-09-06T02:23:15;12.50;99.90
7646;DHT22;3864;48.180;14.178;2022-09-06T02:25:50;12.50;99.90
7646;DHT22;3864;48.180;14.178;2022-09-06T02:28:20;12.50;99.90
7646;DHT22;3864;48.180;14.178;2022-09-06T02:30:52;12.50;99.90
7646;DHT22;3864;48.180;14.178;2022-09-06T02:33:25;12.40;99.90
7646;DHT22;3864;48.180;14.178;2022-09-06T02:35:55;12.40;99.90
7646;DHT22;3864;48.180;14.178;2022-09-06T02:38:25;12.30;99.90
7646;DHT22;3864;48.180;14.178;2022-09-06T02:40:53;12.20;99.90
7646;DHT22;3864;48.180;14.178;2022-09-06T02:43:22;12.10;99.90
7646;DHT22;3864;48.180;14.178;2022-09-06T02:45:51;12.00;99.90
7646;DHT22;3864;48.180;14.178;2022-09-06T02:48:18;12.00;99.90
7646;DHT22;3864;48.180;14.178;2022-09-06T02:50:48;12.10;99.90
7646;DHT22;3864;48.180;14.178;2022-09-06T02:53:16;12.10;99.90
7646;DHT22;3864;48.180;14.178;2022-09-06T02:55:45;12.00;99.90
7646;DHT22;3864;48.180;14.178;2022-09-06T02:58:14;12.00;99.90
7646;DHT22;3864;48.180;14.178;2022-09-06T03:00:42;11.90;99.90
7646;DHT22;3864;48.180;14.178;2022-09-06T03:03:11;11.80;99.90
7646;DHT22;3864;48.180;14.178;2022-09-06T03:05:39;11.80;99.90
7646;DHT22;3864;48.180;14.178;2022-09-06T03:08:07;11.90;99.90
7646;DHT22;3864;48.180;14.178;2022-09-06T03:10:34;12.00;99.90
7646;DHT22;3864;48.180;14.178;2022-09-06T03:13:02;12.00;99.90
7646;DHT22;3864;48.180;14.178;2022-09-06T03:15:30;12.00;99.90
7646;DHT22;3864;48.180;14.178;2022-09-06T03:17:58;12.00;99.90
7646;DHT22;3864;48.180;14.178;2022-09-06T03:20:27;12.00;99.90
7646;DHT22;3864;48.180;14.178;2022-09-06T03:22:56;12.00;99.90
7646;DHT22;3864;48.180;14.178;2022-09-06T03:25:24;11.90;99.90
7646;DHT22;3864;48.180;14.178;2022-09-06T03:27:51;11.80;99.90
7646;DHT22;3864;48.180;14.178;2022-09-06T03:30:19;11.70;99.90
7646;DHT22;3864;48.180;14.178;2022-09-06T03:32:47;11.80;99.90
7646;DHT22;3864;48.180;14.178;2022-09-06T03:35:14;11.70;99.90
7646;DHT22;3864;48.180;14.178;2022-09-06T03:37:44;11.60;99.90
7646;DHT22;3864;48.180;14.178;2022-09-06T03:40:11;11.70;99.90
7646;DHT22;3864;48.180;14.178;2022-09-06T03:42:42;11.80;99.90
7646;DHT22;3864;48.180;14.178;2022-09-06T03:45:11;12.00;99.90
7646;DHT22;3864;48.180;14.178;2022-09-06T03:47:38;11.90;99.90
7646;DHT22;3864;48.180;14.178;2022-09-06T03:50:07;11.80;99.90
7646;DHT22;3864;48.180;14.178;2022-09-06T03:52:35;11.70;99.90
7646;DHT22;3864;48.180;14.178;2022-09-06T03:55:05;11.60;99.90
7646;DHT22;3864;48.180;14.178;2022-09-06T03:57:33;11.50;99.90
7646;DHT22;3864;48.180;14.178;2022-09-06T04:00:01;11.50;99.90
7646;DHT22;3864;48.180;14.178;2022-09-06T04:02:28;11.40;99.90
7646;DHT22;3864;48.180;14.178;2022-09-06T04:04:55;11.30;99.90
7646;DHT22;3864;48.180;14.178;2022-09-06T04:07:23;11.30;99.90
7646;DHT22;3864;48.180;14.178;2022-09-06T04:09:51;11.30;99.90
7646;DHT22;3864;48.180;14.178;2022-09-06T04:12:20;11.30;99.90
7646;DHT22;3864;48.180;14.178;2022-09-06T04:14:48;11.30;99.90
7646;DHT22;3864;48.180;14.178;2022-09-06T04:17:15;11.20;99.90
7646;DHT22;3864;48.180;14.178;2022-09-06T04:19:43;11.20;99.90
7646;DHT22;3864;48.180;14.178;2022-09-06T04:22:10;11.20;99.90
7646;DHT22;3864;48.180;14.178;2022-09-06T04:24:38;11.30;99.90
7646;DHT22;3864;48.180;14.178;2022-09-06T04:27:05;11.30;99.90
7646;DHT22;3864;48.180;14.178;2022-09-06T04:29:34;11.30;99.90
7646;DHT22;3864;48.180;14.178;2022-09-06T04:32:02;11.30;99.90
7646;DHT22;3864;48.180;14.178;2022-09-06T04:34:30;11.30;99.90
7646;DHT22;3864;48.180;14.178;2022-09-06T04:36:58;11.40;99.90
7646;DHT22;3864;48.180;14.178;2022-09-06T04:39:26;11.40;99.90
7646;DHT22;3864;48.180;14.178;2022-09-06T04:41:54;11.30;99.90
7646;DHT22;3864;48.180;14.178;2022-09-06T04:44:21;11.30;99.90
7646;DHT22;3864;48.180;14.178;2022-09-06T04:47:02;11.30;99.90
7646;DHT22;3864;48.180;14.178;2022-09-06T04:49:30;11.30;99.90
7646;DHT22;3864;48.180;14.178;2022-09-06T04:51:57;11.30;99.90
7646;DHT22;3864;48.180;14.178;2022-09-06T04:54:25;11.30;99.90
7646;DHT22;3864;48.180;14.178;2022-09-06T04:56:53;11.30;99.90
7646;DHT22;3864;48.180;14.178;2022-09-06T04:59:22;11.40;99.90
7646;DHT22;3864;48.180;14.178;2022-09-06T05:01:51;11.50;99.90
7646;DHT22;3864;48.180;14.178;2022-09-06T05:04:19;11.50;99.90
7646;DHT22;3864;48.180;14.178;2022-09-06T05:06:47;11.50;99.90
7646;DHT22;3864;48.180;14.178;2022-09-06T05:09:14;11.50;99.90
7646;DHT22;3864;48.180;14.178;2022-09-06T05:11:42;11.50;99.90
7646;DHT22;3864;48.180;14.178;2022-09-06T05:14:09;11.60;99.90
7646;DHT22;3864;48.180;14.178;2022-09-06T05:16:37;11.60;99.90
7646;DHT22;3864;48.180;14.178;2022-09-06T05:19:06;11.60;99.90
7646;DHT22;3864;48.180;14.178;2022-09-06T05:21:34;11.70;99.90
7646;DHT22;3864;48.180;14.178;2022-09-06T05:24:02;11.70;99.90
7646;DHT22;3864;48.180;14.178;2022-09-06T05:26:29;11.80;99.90
7646;DHT22;3864;48.180;14.178;2022-09-06T05:28:57;11.90;99.90
7646;DHT22;3864;48.180;14.178;2022-09-06T05:31:25;12.00;99.90
7646;DHT22;3864;48.180;14.178;2022-09-06T05:33:54;12.00;99.90
7646;DHT22;3864;48.180;14.178;2022-09-06T05:36:24;12.10;99.90
7646;DHT22;3864;48.180;14.178;2022-09-06T05:38:53;12.20;99.90
7646;DHT22;3864;48.180;14.178;2022-09-06T05:41:22;12.30;99.90
7646;DHT22;3864;48.180;14.178;2022-09-06T05:43:49;12.40;99.90
7646;DHT22;3864;48.180;14.178;2022-09-06T05:46:17;12.60;99.90
7646;DHT22;3864;48.180;14.178;2022-09-06T05:48:51;12.70;99.90
7646;DHT22;3864;48.180;14.178;2022-09-06T05:51:24;12.80;99.90
7646;DHT22;3864;48.180;14.178;2022-09-06T05:53:51;13.00;99.90
7646;DHT22;3864;48.180;14.178;2022-09-06T05:56:19;13.00;99.90
7646;DHT22;3864;48.180;14.178;2022-09-06T05:58:47;13.10;99.90
7646;DHT22;3864;48.180;14.178;2022-09-06T06:01:17;13.20;99.90
7646;DHT22;3864;48.180;14.178;2022-09-06T06:03:50;13.30;99.90
7646;DHT22;3864;48.180;14.178;2022-09-06T06:06:20;13.40;99.90
7646;DHT22;3864;48.180;14.178;2022-09-06T06:08:50;13.40;99.90
7646;DHT22;3864;48.180;14.178;2022-09-06T06:11:18;13.50;99.90
7646;DHT22;3864;48.180;14.178;2022-09-06T06:13:48;13.60;99.90
7646;DHT22;3864;48.180;14.178;2022-09-06T06:16:17;13.60;99.90
7646;DHT22;3864;48.180;14.178;2022-09-06T06:18:45;13.70;99.90
7646;DHT22;3864;48.180;14.178;2022-09-06T06:21:15;13.80;99.90
7646;DHT22;3864;48.180;14.178;2022-09-06T06:23:45;13.80;99.90
7646;DHT22;3864;48.180;14.178;2022-09-06T06:26:14;13.90;99.90
7646;DHT22;3864;48.180;14.178;2022-09-06T06:28:42;13.90;99.90
7646;DHT22;3864;48.180;14.178;2022-09-06T06:31:10;14.00;99.90
7646;DHT22;3864;48.180;14.178;2022-09-06T06:33:40;14.10;99.90
7646;DHT22;3864;48.180;14.178;2022-09-06T06:36:18;14.20;99.90
7646;DHT22;3864;48.180;14.178;2022-09-06T06:38:47;14.30;99.90
7646;DHT22;3864;48.180;14.178;2022-09-06T06:41:18;14.40;99.90
7646;DHT22;3864;48.180;14.178;2022-09-06T06:43:46;14.60;99.90
7646;DHT22;3864;48.180;14.178;2022-09-06T06:46:15;14.80;99.90
7646;DHT22;3864;48.180;14.178;2022-09-06T06:48:45;15.60;99.90
7646;DHT22;3864;48.180;14.178;2022-09-06T06:51:14;16.20;99.90
7646;DHT22;3864;48.180;14.178;2022-09-06T06:53:42;16.20;99.90
7646;DHT22;3864;48.180;14.178;2022-09-06T06:56:19;16.00;99.90
7646;DHT22;3864;48.180;14.178;2022-09-06T06:58:48;15.80;99.90
7646;DHT22;3864;48.180;14.178;2022-09-06T07:01:19;15.80;99.90
7646;DHT22;3864;48.180;14.178;2022-09-06T07:03:47;15.80;99.90
7646;DHT22;3864;48.180;14.178;2022-09-06T07:06:16;15.80;99.90
7646;DHT22;3864;48.180;14.178;2022-09-06T07:08:44;15.90;99.90
7646;DHT22;3864;48.180;14.178;2022-09-06T07:13:57;17.20;99.90
7646;DHT22;3864;48.180;14.178;2022-09-06T07:16:24;17.60;99.90
7646;DHT22;3864;48.180;14.178;2022-09-06T07:18:53;17.10;99.90
7646;DHT22;3864;48.180;14.178;2022-09-06T07:21:22;16.90;99.90
7646;DHT22;3864;48.180;14.178;2022-09-06T07:23:51;16.60;99.90
7646;DHT22;3864;48.180;14.178;2022-09-06T07:26:21;16.40;99.90
7646;DHT22;3864;48.180;14.178;2022-09-06T07:28:51;16.40;99.90
7646;DHT22;3864;48.180;14.178;2022-09-06T07:31:20;16.40;99.90
7646;DHT22;3864;48.180;14.178;2022-09-06T07:33:48;16.50;99.90
7646;DHT22;3864;48.180;14.178;2022-09-06T07:36:16;16.50;99.90
7646;DHT22;3864;48.180;14.178;2022-09-06T07:38:47;16.90;99.90
7646;DHT22;3864;48.180;14.178;2022-09-06T07:41:15;17.30;99.90
7646;DHT22;3864;48.180;14.178;2022-09-06T07:43:44;17.50;99.90
7646;DHT22;3864;48.180;14.178;2022-09-06T07:46:13;18.70;99.90
7646;DHT22;3864;48.180;14.178;2022-09-06T07:48:44;21.00;99.90
7646;DHT22;3864;48.180;14.178;2022-09-06T07:51:13;23.00;99.90
7646;DHT22;3864;48.180;14.178;2022-09-06T07:53:43;22.80;99.90
7646;DHT22;3864;48.180;14.178;2022-09-06T07:56:12;22.20;99.90
7646;DHT22;3864;48.180;14.178;2022-09-06T07:58:40;21.60;99.90
7646;DHT22;3864;48.180;14.178;2022-09-06T08:01:29;21.00;99.90
7646;DHT22;3864;48.180;14.178;2022-09-06T08:04:00;20.90;99.90
7646;DHT22;3864;48.180;14.178;2022-09-06T08:06:29;21.70;99.90
7646;DHT22;3864;48.180;14.178;2022-09-06T08:08:57;22.30;99.90
7646;DHT22;3864;48.180;14.178;2022-09-06T08:11:27;23.00;99.90
7646;DHT22;3864;48.180;14.178;2022-09-06T08:13:56;23.20;99.90
7646;DHT22;3864;48.180;14.178;2022-09-06T08:16:25;24.00;99.90
7646;DHT22;3864;48.180;14.178;2022-09-06T08:18:55;24.20;99.90
7646;DHT22;3864;48.180;14.178;2022-09-06T08:21:26;24.00;99.90
7646;DHT22;3864;48.180;14.178;2022-09-06T08:23:56;23.90;99.90
7646;DHT22;3864;48.180;14.178;2022-09-06T08:26:25;23.60;99.90
7646;DHT22;3864;48.180;14.178;2022-09-06T08:28:54;23.70;99.90
7646;DHT22;3864;48.180;14.178;2022-09-06T08:31:22;25.10;99.90
7646;DHT22;3864;48.180;14.178;2022-09-06T08:33:50;27.30;99.90
7646;DHT22;3864;48.180;14.178;2022-09-06T08:36:18;28.70;99.90
7646;DHT22;3864;48.180;14.178;2022-09-06T08:38:51;29.90;99.90
7646;DHT22;3864;48.180;14.178;2022-09-06T08:41:24;29.60;99.90
7646;DHT22;3864;48.180;14.178;2022-09-06T08:43:53;29.60;99.90
7646;DHT22;3864;48.180;14.178;2022-09-06T08:46:28;29.50;99.90
7646;DHT22;3864;48.180;14.178;2022-09-06T08:48:58;30.80;99.90
7646;DHT22;3864;48.180;14.178;2022-09-06T08:54:39;30.80;99.90
7646;DHT22;3864;48.180;14.178;2022-09-06T08:57:14;31.10;99.90
7646;DHT22;3864;48.180;14.178;2022-09-06T08:59:48;31.80;99.90
7646;DHT22;3864;48.180;14.178;2022-09-06T09:02:20;31.70;99.90
7646;DHT22;3864;48.180;14.178;2022-09-06T09:04:50;31.30;99.90
7646;DHT22;3864;48.180;14.178;2022-09-06T09:07:35;31.10;99.90
7646;DHT22;3864;48.180;14.178;2022-09-06T09:10:11;30.90;99.90
7646;DHT22;3864;48.180;14.178;2022-09-06T09:12:44;29.70;99.90
7646;DHT22;3864;48.180;14.178;2022-09-06T09:15:14;27.50;99.90
7646;DHT22;3864;48.180;14.178;2022-09-06T09:17:44;25.80;99.90
7646;DHT22;3864;48.180;14.178;2022-09-06T09:20:13;24.50;99.90
7646;DHT22;3864;48.180;14.178;2022-09-06T09:22:41;23.70;99.90
7646;DHT22;3864;48.180;14.178;2022-09-06T09:25:15;23.10;99.90
7646;DHT22;3864;48.180;14.178;2022-09-06T09:27:44;22.70;99.90
7646;DHT22;3864;48.180;14.178;2022-09-06T09:30:15;22.50;99.90
7646;DHT22;3864;48.180;14.178;2022-09-06T09:32:44;22.30;99.90
7646;DHT22;3864;48.180;14.178;2022-09-06T09:35:18;22.30;99.90
7646;DHT22;3864;48.180;14.178;2022-09-06T09:37:46;22.30;99.90
7646;DHT22;3864;48.180;14.178;2022-09-06T09:40:27;22.20;99.90
7646;DHT22;3864;48.180;14.178;2022-09-06T09:43:07;22.00;99.90
7646;DHT22;3864;48.180;14.178;2022-09-06T09:45:35;21.80;99.90
7646;DHT22;3864;48.180;14.178;2022-09-06T09:48:20;21.70;99.90
7646;DHT22;3864;48.180;14.178;2022-09-06T09:50:52;22.00;99.90
7646;DHT22;3864;48.180;14.178;2022-09-06T09:53:21;22.30;99.90
7646;DHT22;3864;48.180;14.178;2022-09-06T09:55:56;22.30;99.90
7646;DHT22;3864;48.180;14.178;2022-09-06T09:58:31;22.20;99.90
7646;DHT22;3864;48.180;14.178;2022-09-06T10:01:11;22.10;99.90
7646;DHT22;3864;48.180;14.178;2022-09-06T10:03:43;21.80;99.90
7646;DHT22;3864;48.180;14.178;2022-09-06T10:06:12;21.50;99.90
7646;DHT22;3864;48.180;14.178;2022-09-06T10:08:42;21.40;99.90
7646;DHT22;3864;48.180;14.178;2022-09-06T10:11:14;21.40;99.90
7646;DHT22;3864;48.180;14.178;2022-09-06T10:14:10;21.40;99.90
7646;DHT22;3864;48.180;14.178;2022-09-06T10:16:41;21.50;99.90
7646;DHT22;3864;48.180;14.178;2022-09-06T10:19:36;21.70;99.90
7646;DHT22;3864;48.180;14.178;2022-09-06T10:22:16;21.70;99.90
7646;DHT22;3864;48.180;14.178;2022-09-06T10:27:57;22.00;99.90
7646;DHT22;3864;48.180;14.178;2022-09-06T10:30:28;22.30;99.90
7646;DHT22;3864;48.180;14.178;2022-09-06T10:33:00;22.60;99.90
7646;DHT22;3864;48.180;14.178;2022-09-06T10:35:34;22.90;99.90
7646;DHT22;3864;48.180;14.178;2022-09-06T10:38:14;24.00;99.90
7646;DHT22;3864;48.180;14.178;2022-09-06T10:40:54;25.90;99.90
7646;DHT22;3864;48.180;14.178;2022-09-06T10:43:29;27.30;99.90
7646;DHT22;3864;48.180;14.178;2022-09-06T10:46:02;27.70;99.90
7646;DHT22;3864;48.180;14.178;2022-09-06T10:48:39;28.10;99.90
7646;DHT22;3864;48.180;14.178;2022-09-06T10:51:13;29.40;99.90
7646;DHT22;3864;48.180;14.178;2022-09-06T10:53:46;30.50;99.90
7646;DHT22;3864;48.180;14.178;2022-09-06T10:56:17;31.70;99.90
7646;DHT22;3864;48.180;14.178;2022-09-06T10:58:53;32.70;99.90
7646;DHT22;3864;48.180;14.178;2022-09-06T11:01:29;33.60;99.90
7646;DHT22;3864;48.180;14.178;2022-09-06T11:03:59;33.80;99.90
7646;DHT22;3864;48.180;14.178;2022-09-06T11:06:31;34.00;99.90
7646;DHT22;3864;48.180;14.178;2022-09-06T11:09:08;34.00;99.90
7646;DHT22;3864;48.180;14.178;2022-09-06T11:11:41;34.30;99.90
7646;DHT22;3864;48.180;14.178;2022-09-06T11:14:14;33.80;99.80
7646;DHT22;3864;48.180;14.178;2022-09-06T11:16:48;33.50;99.80
7646;DHT22;3864;48.180;14.178;2022-09-06T11:19:38;33.40;99.90
7646;DHT22;3864;48.180;14.178;2022-09-06T11:22:27;32.70;99.90
7646;DHT22;3864;48.180;14.178;2022-09-06T11:25:22;31.50;99.90
7646;DHT22;3864;48.180;14.178;2022-09-06T11:27:57;30.20;99.90
7646;DHT22;3864;48.180;14.178;2022-09-06T11:30:30;30.00;99.90
7646;DHT22;3864;48.180;14.178;2022-09-06T11:33:21;30.10;99.90
7646;DHT22;3864;48.180;14.178;2022-09-06T11:36:22;30.50;99.90
7646;DHT22;3864;48.180;14.178;2022-09-06T11:39:08;30.70;99.90
7646;DHT22;3864;48.180;14.178;2022-09-06T11:41:39;30.60;99.90
7646;DHT22;3864;48.180;14.178;2022-09-06T11:50:59;29.70;99.90
7646;DHT22;3864;48.180;14.178;2022-09-06T11:53:33;29.70;99.90
7646;DHT22;3864;48.180;14.178;2022-09-06T11:56:24;29.60;99.90
7646;DHT22;3864;48.180;14.178;2022-09-06T11:58:58;29.50;99.90
7646;DHT22;3864;48.180;14.178;2022-09-06T12:01:37;29.50;99.90
7646;DHT22;3864;48.180;14.178;2022-09-06T12:04:09;29.70;99.90
7646;DHT22;3864;48.180;14.178;2022-09-06T12:06:41;30.70;99.90
7646;DHT22;3864;48.180;14.178;2022-09-06T12:09:29;31.70;99.90
7646;DHT22;3864;48.180;14.178;2022-09-06T12:11:58;32.90;99.90
7646;DHT22;3864;48.180;14.178;2022-09-06T12:14:34;33.60;99.90
7646;DHT22;3864;48.180;14.178;2022-09-06T12:17:22;34.00;99.90
7646;DHT22;3864;48.180;14.178;2022-09-06T12:19:57;34.20;99.90
7646;DHT22;3864;48.180;14.178;2022-09-06T12:22:56;34.00;99.90
7646;DHT22;3864;48.180;14.178;2022-09-06T12:28:33;33.20;99.90
7646;DHT22;3864;48.180;14.178;2022-09-06T12:31:30;33.40;99.90
7646;DHT22;3864;48.180;14.178;2022-09-06T12:34:05;32.90;99.90
7646;DHT22;3864;48.180;14.178;2022-09-06T12:36:33;31.90;99.90
7646;DHT22;3864;48.180;14.178;2022-09-06T12:39:07;30.60;99.90
7646;DHT22;3864;48.180;14.178;2022-09-06T12:41:38;29.50;99.90
7646;DHT22;3864;48.180;14.178;2022-09-06T12:44:06;29.10;99.90
7646;DHT22;3864;48.180;14.178;2022-09-06T12:46:34;29.20;99.90
7646;DHT22;3864;48.180;14.178;2022-09-06T12:49:06;29.80;99.90
7646;DHT22;3864;48.180;14.178;2022-09-06T12:51:49;30.50;99.90
7646;DHT22;3864;48.180;14.178;2022-09-06T12:54:23;31.00;99.90
7646;DHT22;3864;48.180;14.178;2022-09-06T12:57:12;31.30;99.90
7646;DHT22;3864;48.180;14.178;2022-09-06T12:59:50;31.50;99.90
7646;DHT22;3864;48.180;14.178;2022-09-06T13:02:31;31.30;99.90
7646;DHT22;3864;48.180;14.178;2022-09-06T13:05:04;31.00;99.90
7646;DHT22;3864;48.180;14.178;2022-09-06T13:07:32;31.20;99.90
7646;DHT22;3864;48.180;14.178;2022-09-06T13:10:30;31.10;99.90
7646;DHT22;3864;48.180;14.178;2022-09-06T13:13:01;30.70;99.90
7646;DHT22;3864;48.180;14.178;2022-09-06T13:15:48;30.20;99.90
7646;DHT22;3864;48.180;14.178;2022-09-06T13:18:32;29.80;99.90
7646;DHT22;3864;48.180;14.178;2022-09-06T13:21:07;29.60;99.90
7646;DHT22;3864;48.180;14.178;2022-09-06T13:23:45;29.90;99.90
7646;DHT22;3864;48.180;14.178;2022-09-06T13:26:31;29.90;99.90
7646;DHT22;3864;48.180;14.178;2022-09-06T13:29:09;30.10;99.90
7646;DHT22;3864;48.180;14.178;2022-09-06T13:31:37;30.30;99.90
7646;DHT22;3864;48.180;14.178;2022-09-06T13:34:05;30.50;99.90
7646;DHT22;3864;48.180;14.178;2022-09-06T13:36:33;30.80;99.90
7646;DHT22;3864;48.180;14.178;2022-09-06T13:39:01;30.50;99.90
7646;DHT22;3864;48.180;14.178;2022-09-06T13:41:59;30.30;99.90
7646;DHT22;3864;48.180;14.178;2022-09-06T13:44:28;30.00;99.90
7646;DHT22;3864;48.180;14.178;2022-09-06T13:46:56;29.60;99.90
7646;DHT22;3864;48.180;14.178;2022-09-06T13:49:24;29.30;99.90
7646;DHT22;3864;48.180;14.178;2022-09-06T13:51:54;28.80;99.90
7646;DHT22;3864;48.180;14.178;2022-09-06T13:54:22;28.20;99.90
7646;DHT22;3864;48.180;14.178;2022-09-06T13:56:51;27.70;99.90
7646;DHT22;3864;48.180;14.178;2022-09-06T13:59:22;27.30;99.90
7646;DHT22;3864;48.180;14.178;2022-09-06T14:02:03;27.00;99.90
7646;DHT22;3864;48.180;14.178;2022-09-06T14:04:30;26.70;99.90
7646;DHT22;3864;48.180;14.178;2022-09-06T14:06:59;26.60;99.90
7646;DHT22;3864;48.180;14.178;2022-09-06T14:09:28;26.50;99.90
7646;DHT22;3864;48.180;14.178;2022-09-06T14:11:56;26.40;99.90
7646;DHT22;3864;48.180;14.178;2022-09-06T14:14:26;26.40;99.90
7646;DHT22;3864;48.180;14.178;2022-09-06T14:16:54;26.20;99.90
7646;DHT22;3864;48.180;14.178;2022-09-06T14:19:21;25.90;99.90
7646;DHT22;3864;48.180;14.178;2022-09-06T14:21:49;25.80;99.90
7646;DHT22;3864;48.180;14.178;2022-09-06T14:24:17;25.70;99.90
7646;DHT22;3864;48.180;14.178;2022-09-06T14:26:49;25.70;99.90
7646;DHT22;3864;48.180;14.178;2022-09-06T14:29:16;25.60;99.90
7646;DHT22;3864;48.180;14.178;2022-09-06T14:31:46;25.50;99.90
7646;DHT22;3864;48.180;14.178;2022-09-06T14:34:14;25.40;99.90
7646;DHT22;3864;48.180;14.178;2022-09-06T14:36:42;25.40;99.90
7646;DHT22;3864;48.180;14.178;2022-09-06T14:39:10;25.40;99.90
7646;DHT22;3864;48.180;14.178;2022-09-06T14:41:37;25.30;99.90
7646;DHT22;3864;48.180;14.178;2022-09-06T14:44:05;25.30;99.90
7646;DHT22;3864;48.180;14.178;2022-09-06T14:46:33;25.40;99.90
7646;DHT22;3864;48.180;14.178;2022-09-06T14:49:04;25.70;99.90
7646;DHT22;3864;48.180;14.178;2022-09-06T14:51:33;25.80;99.90
7646;DHT22;3864;48.180;14.178;2022-09-06T14:54:04;25.90;99.90
7646;DHT22;3864;48.180;14.178;2022-09-06T14:56:32;25.90;99.90
7646;DHT22;3864;48.180;14.178;2022-09-06T14:59:00;26.00;99.90
7646;DHT22;3864;48.180;14.178;2022-09-06T15:01:29;26.30;99.90
7646;DHT22;3864;48.180;14.178;2022-09-06T15:03:59;26.80;99.90
7646;DHT22;3864;48.180;14.178;2022-09-06T15:06:30;27.20;99.90
7646;DHT22;3864;48.180;14.178;2022-09-06T15:08:58;27.70;99.90
7646;DHT22;3864;48.180;14.178;2022-09-06T15:11:30;28.00;99.90
7646;DHT22;3864;48.180;14.178;2022-09-06T15:13:59;28.40;99.90
7646;DHT22;3864;48.180;14.178;2022-09-06T15:16:26;28.40;99.90
7646;DHT22;3864;48.180;14.178;2022-09-06T15:18:54;28.30;99.90
7646;DHT22;3864;48.180;14.178;2022-09-06T15:21:21;28.10;99.90
7646;DHT22;3864;48.180;14.178;2022-09-06T15:23:52;27.90;99.90
7646;DHT22;3864;48.180;14.178;2022-09-06T15:26:20;27.50;99.90
7646;DHT22;3864;48.180;14.178;2022-09-06T15:28:48;27.10;99.90
7646;DHT22;3864;48.180;14.178;2022-09-06T15:31:15;26.60;99.90
7646;DHT22;3864;48.180;14.178;2022-09-06T15:33:44;26.20;99.90
7646;DHT22;3864;48.180;14.178;2022-09-06T15:36:13;26.00;99.90
7646;DHT22;3864;48.180;14.178;2022-09-06T15:38:42;26.00;99.90
7646;DHT22;3864;48.180;14.178;2022-09-06T15:41:14;26.20;99.90
7646;DHT22;3864;48.180;14.178;2022-09-06T15:43:43;26.20;99.90
7646;DHT22;3864;48.180;14.178;2022-09-06T15:46:12;26.20;99.90
7646;DHT22;3864;48.180;14.178;2022-09-06T15:48:42;26.20;99.90
7646;DHT22;3864;48.180;14.178;2022-09-06T15:51:10;26.40;99.90
7646;DHT22;3864;48.180;14.178;2022-09-06T15:53:40;26.70;99.90
7646;DHT22;3864;48.180;14.178;2022-09-06T15:56:09;26.60;99.90
7646;DHT22;3864;48.180;14.178;2022-09-06T15:58:39;26.60;99.90
7646;DHT22;3864;48.180;14.178;2022-09-06T16:01:09;26.40;99.90
7646;DHT22;3864;48.180;14.178;2022-09-06T16:03:38;26.40;99.90
7646;DHT22;3864;48.180;14.178;2022-09-06T16:06:09;26.30;99.90
7646;DHT22;3864;48.180;14.178;2022-09-06T16:08:36;26.30;99.90
7646;DHT22;3864;48.180;14.178;2022-09-06T16:11:08;26.20;99.90
7646;DHT22;3864;48.180;14.178;2022-09-06T16:13:39;26.30;99.90
7646;DHT22;3864;48.180;14.178;2022-09-06T16:16:08;26.40;99.90
7646;DHT22;3864;48.180;14.178;2022-09-06T16:18:37;26.40;99.90
7646;DHT22;3864;48.180;14.178;2022-09-06T16:21:06;26.40;99.90
7646;DHT22;3864;48.180;14.178;2022-09-06T16:23:35;26.70;99.90
7646;DHT22;3864;48.180;14.178;2022-09-06T16:26:08;26.80;99.90
7646;DHT22;3864;48.180;14.178;2022-09-06T16:28:36;27.00;99.90
7646;DHT22;3864;48.180;14.178;2022-09-06T16:31:06;27.00;99.90
7646;DHT22;3864;48.180;14.178;2022-09-06T16:33:36;26.90;99.90
7646;DHT22;3864;48.180;14.178;2022-09-06T16:36:06;26.50;99.90